sensor_id;sensor_type;location;lat;lon;timestamp;temperature;humidity
20045;DHT22;10183;47.808;9.476;2023-07-13T00:01:30;16.40;99.90
20045;DHT22;10183;47.808;9.476;2023-07-13T00:03:57;16.40;99.90
20045;DHT22;10183;47.808;9.476;2023-07-13T00:06:23;16.30;99.90
20045;DHT22;10183;47.808;9.476;2023-07-13T00:08:50;16.30;99.90
20045;DHT22;10183;47.808;9.476;2023-07-13T00:11:17;16.30;99.90
20045;DHT22;10183;47.808;9.476;2023-07-13T00:13:43;16.30;99.90
20045;DHT22;10183;47.808;9.476;2023-07-13T00:16:11;16.30;99.90
20045;DHT22;10183;47.808;9.476;2023-07-13T00:18:40;16.20;99.90
20045;DHT22;10183;47.808;9.476;2023-07-13T00:21:06;16.30;99.90
20045;DHT22;10183;47.808;9.476;2023-07-13T00:23:38;16.30;99.90
20045;DHT22;10183;47.808;9.476;2023-07-13T00:26:06;16.30;99.90
20045;DHT22;10183;47.808;9.476;2023-07-13T00:28:33;16.20;99.90
20045;DHT22;10183;47.808;9.476;2023-07-13T00:31:00;16.30;99.90
20045;DHT22;10183;47.808;9.476;2023-07-13T00:33:28;16.30;99.90
20045;DHT22;10183;47.808;9.476;2023-07-13T00:35:56;16.20;99.90
20045;DHT22;10183;47.808;9.476;2023-07-13T00:38:23;16.10;99.90
20045;DHT22;10183;47.808;9.476;2023-07-13T00:40:50;16.10;99.90
20045;DHT22;10183;47.808;9.476;2023-07-13T00:43:19;16.10;99.90
20045;DHT22;10183;47.808;9.476;2023-07-13T00:48:14;16.10;99.90
20045;DHT22;10183;47.808;9.476;2023-07-13T00:50:43;16.20;99.90
20045;DHT22;10183;47.808;9.476;2023-07-13T00:53:10;16.20;99.90
20045;DHT22;10183;47.808;9.476;2023-07-13T00:55:38;16.20;99.90
20045;DHT22;10183;47.808;9.476;2023-07-13T00:58:05;16.30;99.90
20045;DHT22;10183;47.808;9.476;2023-07-13T01:00:36;16.20;99.90
20045;DHT22;10183;47.808;9.476;2023-07-13T01:03:04;16.30;99.90
20045;DHT22;10183;47.808;9.476;2023-07-13T01:05:32;16.40;99.90
20045;DHT22;10183;47.808;9.476;2023-07-13T01:08:00;16.40;99.90
20045;DHT22;10183;47.808;9.476;2023-07-13T01:10:27;16.40;99.90
20045;DHT22;10183;47.808;9.476;2023-07-13T01:12:54;16.30;99.90
20045;DHT22;10183;47.808;9.476;2023-07-13T01:15:42;16.30;99.90
20045;DHT22;10183;47.808;9.476;2023-07-13T01:18:28;16.30;99.90
20045;DHT22;10183;47.808;9.476;2023-07-13T01:20:55;16.30;99.90
20045;DHT22;10183;47.808;9.476;2023-07-13T01:23:22;16.40;99.90
20045;DHT22;10183;47.808;9.476;2023-07-13T01:25:48;16.40;99.90
20045;DHT22;10183;47.808;9.476;2023-07-13T01:28:15;16.30;99.90
20045;DHT22;10183;47.808;9.476;2023-07-13T01:30:44;16.30;99.90
20045;DHT22;10183;47.808;9.476;2023-07-13T01:33:13;16.30;99.90
20045;DHT22;10183;47.808;9.476;2023-07-13T01:35:40;16.30;99.90
20045;DHT22;10183;47.808;9.476;2023-07-13T01:38:07;16.20;99.90
20045;DHT22;10183;47.808;9.476;2023-07-13T01:40:35;16.20;99.90
20045;DHT22;10183;47.808;9.476;2023-07-13T01:43:01;16.20;99.90
20045;DHT22;10183;47.808;9.476;2023-07-13T01:45:28;16.30;99.90
20045;DHT22;10183;47.808;9.476;2023-07-13T01:47:54;16.30;99.90
20045;DHT22;10183;47.808;9.476;2023-07-13T01:50:20;16.30;99.90
20045;DHT22;10183;47.808;9.476;2023-07-13T01:52:46;16.30;99.90
20045;DHT22;10183;47.808;9.476;2023-07-13T01:55:13;16.30;99.90
20045;DHT22;10183;47.808;9.476;2023-07-13T01:57:39;16.40;99.90
20045;DHT22;10183;47.808;9.476;2023-07-13T02:00:08;16.30;99.90
20045;DHT22;10183;47.808;9.476;2023-07-13T02:02:34;16.40;99.90
20045;DHT22;10183;47.808;9.476;2023-07-13T02:05:00;16.40;99.90
20045;DHT22;10183;47.808;9.476;2023-07-13T02:07:26;16.50;99.90
20045;DHT22;10183;47.808;9.476;2023-07-13T02:09:53;16.50;99.90
20045;DHT22;10183;47.808;9.476;2023-07-13T02:12:19;16.50;99.90
20045;DHT22;10183;47.808;9.476;2023-07-13T02:14:45;16.50;99.90
20045;DHT22;10183;47.808;9.476;2023-07-13T02:17:13;16.50;99.90
20045;DHT22;10183;47.808;9.476;2023-07-13T02:19:39;16.50;99.90
20045;DHT22;10183;47.808;9.476;2023-07-13T02:22:06;16.50;99.90
20045;DHT22;10183;47.808;9.476;2023-07-13T02:24:32;16.40;99.90
20045;DHT22;10183;47.808;9.476;2023-07-13T02:26:58;16.50;99.90
20045;DHT22;10183;47.808;9.476;2023-07-13T02:29:25;16.50;99.90
20045;DHT22;10183;47.808;9.476;2023-07-13T02:31:51;16.40;99.90
20045;DHT22;10183;47.808;9.476;2023-07-13T02:34:17;16.50;99.90
20045;DHT22;10183;47.808;9.476;2023-07-13T02:36:43;16.40;99.90
20045;DHT22;10183;47.808;9.476;2023-07-13T02:39:12;16.30;99.90
20045;DHT22;10183;47.808;9.476;2023-07-13T02:41:38;16.30;99.90
20045;DHT22;10183;47.808;9.476;2023-07-13T02:44:04;16.30;99.90
20045;DHT22;10183;47.808;9.476;2023-07-13T02:46:32;16.30;99.90
20045;DHT22;10183;47.808;9.476;2023-07-13T02:48:58;16.40;99.90
20045;DHT22;10183;47.808;9.476;2023-07-13T02:51:25;16.50;99.90
20045;DHT22;10183;47.808;9.476;2023-07-13T02:53:51;16.60;99.90
20045;DHT22;10183;47.808;9.476;2023-07-13T02:56:23;16.50;99.90
20045;DHT22;10183;47.808;9.476;2023-07-13T02:58:49;16.60;99.90
20045;DHT22;10183;47.808;9.476;2023-07-13T03:01:16;16.60;99.90
20045;DHT22;10183;47.808;9.476;2023-07-13T03:03:45;16.60;99.90
20045;DHT22;10183;47.808;9.476;2023-07-13T03:06:13;16.70;99.90
20045;DHT22;10183;47.808;9.476;2023-07-13T03:08:40;16.70;99.90
20045;DHT22;10183;47.808;9.476;2023-07-13T03:11:09;16.70;99.90
20045;DHT22;10183;47.808;9.476;2023-07-13T03:13:38;16.70;99.90
20045;DHT22;10183;47.808;9.476;2023-07-13T03:16:04;16.70;99.90
20045;DHT22;10183;47.808;9.476;2023-07-13T03:18:31;16.70;99.90
20045;DHT22;10183;47.808;9.476;2023-07-13T03:20:57;16.70;99.90
20045;DHT22;10183;47.808;9.476;2023-07-13T03:23:25;16.60;99.90
20045;DHT22;10183;47.808;9.476;2023-07-13T03:26:02;16.60;99.90
20045;DHT22;10183;47.808;9.476;2023-07-13T03:28:28;16.60;99.90
20045;DHT22;10183;47.808;9.476;2023-07-13T03:31:02;16.70;99.90
20045;DHT22;10183;47.808;9.476;2023-07-13T03:33:28;16.70;99.90
20045;DHT22;10183;47.808;9.476;2023-07-13T03:35:55;16.70;99.90
20045;DHT22;10183;47.808;9.476;2023-07-13T03:38:21;16.70;99.90
20045;DHT22;10183;47.808;9.476;2023-07-13T03:40:48;16.70;99.90
20045;DHT22;10183;47.808;9.476;2023-07-13T03:43:14;16.80;99.90
20045;DHT22;10183;47.808;9.476;2023-07-13T03:45:41;16.80;99.90
20045;DHT22;10183;47.808;9.476;2023-07-13T03:48:07;16.70;99.90
20045;DHT22;10183;47.808;9.476;2023-07-13T03:50:33;16.70;99.90
20045;DHT22;10183;47.808;9.476;2023-07-13T03:53:00;16.70;99.90
20045;DHT22;10183;47.808;9.476;2023-07-13T03:55:26;16.70;99.90
20045;DHT22;10183;47.808;9.476;2023-07-13T04:00:53;16.70;99.90
20045;DHT22;10183;47.808;9.476;2023-07-13T04:03:19;16.60;99.90
20045;DHT22;10183;47.808;9.476;2023-07-13T04:05:46;16.60;99.90
20045;DHT22;10183;47.808;9.476;2023-07-13T04:08:12;16.70;99.90
20045;DHT22;10183;47.808;9.476;2023-07-13T04:10:39;16.80;99.90
20045;DHT22;10183;47.808;9.476;2023-07-13T04:13:05;16.70;99.90
20045;DHT22;10183;47.808;9.476;2023-07-13T04:15:32;16.80;99.90
20045;DHT22;10183;47.808;9.476;2023-07-13T04:17:59;16.80;99.90
20045;DHT22;10183;47.808;9.476;2023-07-13T04:20:25;16.80;99.90
20045;DHT22;10183;47.808;9.476;2023-07-13T04:22:52;16.90;99.90
20045;DHT22;10183;47.808;9.476;2023-07-13T04:25:21;16.90;99.90
20045;DHT22;10183;47.808;9.476;2023-07-13T04:27:49;17.00;99.90
20045;DHT22;10183;47.808;9.476;2023-07-13T04:30:15;17.00;99.90
20045;DHT22;10183;47.808;9.476;2023-07-13T04:32:41;17.00;99.90
20045;DHT22;10183;47.808;9.476;2023-07-13T04:35:08;17.10;99.90
20045;DHT22;10183;47.808;9.476;2023-07-13T04:37:34;17.10;99.90
20045;DHT22;10183;47.808;9.476;2023-07-13T04:40:02;17.10;99.90
20045;DHT22;10183;47.808;9.476;2023-07-13T04:42:29;17.20;99.90
20045;DHT22;10183;47.808;9.476;2023-07-13T04:44:56;17.20;99.90
20045;DHT22;10183;47.808;9.476;2023-07-13T04:47:22;17.20;99.90
20045;DHT22;10183;47.808;9.476;2023-07-13T04:49:48;17.20;99.90
20045;DHT22;10183;47.808;9.476;2023-07-13T04:52:14;17.20;99.90
20045;DHT22;10183;47.808;9.476;2023-07-13T04:54:41;17.30;99.90
20045;DHT22;10183;47.808;9.476;2023-07-13T04:57:08;17.20;99.90
20045;DHT22;10183;47.808;9.476;2023-07-13T04:59:34;17.10;99.90
20045;DHT22;10183;47.808;9.476;2023-07-13T05:02:00;17.10;99.90
20045;DHT22;10183;47.808;9.476;2023-07-13T05:04:27;17.10;99.90
20045;DHT22;10183;47.808;9.476;2023-07-13T05:06:53;17.10;99.90
20045;DHT22;10183;47.808;9.476;2023-07-13T05:09:19;17.30;99.90
20045;DHT22;10183;47.808;9.476;2023-07-13T05:11:45;17.30;99.90
20045;DHT22;10183;47.808;9.476;2023-07-13T05:14:12;17.30;99.90
20045;DHT22;10183;47.808;9.476;2023-07-13T05:16:38;17.40;99.90
20045;DHT22;10183;47.808;9.476;2023-07-13T05:19:04;17.40;99.90
20045;DHT22;10183;47.808;9.476;2023-07-13T05:21:30;17.40;99.90
20045;DHT22;10183;47.808;9.476;2023-07-13T05:23:57;17.40;99.90
20045;DHT22;10183;47.808;9.476;2023-07-13T05:26:23;17.50;99.90
20045;DHT22;10183;47.808;9.476;2023-07-13T05:28:49;17.60;99.90
20045;DHT22;10183;47.808;9.476;2023-07-13T05:31:15;17.70;99.90
20045;DHT22;10183;47.808;9.476;2023-07-13T05:33:51;17.70;99.90
20045;DHT22;10183;47.808;9.476;2023-07-13T05:36:17;17.70;99.90
20045;DHT22;10183;47.808;9.476;2023-07-13T05:38:44;17.70;99.90
20045;DHT22;10183;47.808;9.476;2023-07-13T05:41:10;17.60;99.90
20045;DHT22;10183;47.808;9.476;2023-07-13T05:43:36;17.60;99.90
20045;DHT22;10183;47.808;9.476;2023-07-13T05:46:02;17.60;99.90
20045;DHT22;10183;47.808;9.476;2023-07-13T05:48:28;17.60;99.90
20045;DHT22;10183;47.808;9.476;2023-07-13T05:50:54;17.80;99.90
20045;DHT22;10183;47.808;9.476;2023-07-13T05:53:20;17.90;99.90
20045;DHT22;10183;47.808;9.476;2023-07-13T05:55:47;17.80;99.90
20045;DHT22;10183;47.808;9.476;2023-07-13T05:58:17;17.80;99.90
20045;DHT22;10183;47.808;9.476;2023-07-13T06:00:43;17.80;99.90
20045;DHT22;10183;47.808;9.476;2023-07-13T06:03:09;17.80;99.90
20045;DHT22;10183;47.808;9.476;2023-07-13T06:05:37;17.80;99.90
20045;DHT22;10183;47.808;9.476;2023-07-13T06:08:04;17.80;99.90
20045;DHT22;10183;47.808;9.476;2023-07-13T06:10:33;17.80;99.90
20045;DHT22;10183;47.808;9.476;2023-07-13T06:12:59;17.80;99.90
20045;DHT22;10183;47.808;9.476;2023-07-13T06:15:25;17.80;99.90
20045;DHT22;10183;47.808;9.476;2023-07-13T06:17:52;17.80;99.90
20045;DHT22;10183;47.808;9.476;2023-07-13T06:20:18;18.00;99.90
20045;DHT22;10183;47.808;9.476;2023-07-13T06:22:44;18.10;99.90
20045;DHT22;10183;47.808;9.476;2023-07-13T06:25:11;18.10;99.90
20045;DHT22;10183;47.808;9.476;2023-07-13T06:27:37;18.10;99.90
20045;DHT22;10183;47.808;9.476;2023-07-13T06:30:03;18.10;99.90
20045;DHT22;10183;47.808;9.476;2023-07-13T06:32:29;17.90;99.90
20045;DHT22;10183;47.808;9.476;2023-07-13T06:34:55;17.90;99.90
20045;DHT22;10183;47.808;9.476;2023-07-13T06:37:22;18.00;99.90
20045;DHT22;10183;47.808;9.476;2023-07-13T06:39:48;18.10;99.90
20045;DHT22;10183;47.808;9.476;2023-07-13T06:42:16;18.10;99.90
20045;DHT22;10183;47.808;9.476;2023-07-13T06:44:42;18.10;99.90
20045;DHT22;10183;47.808;9.476;2023-07-13T06:47:08;18.00;99.90
20045;DHT22;10183;47.808;9.476;2023-07-13T06:49:34;18.10;99.90
20045;DHT22;10183;47.808;9.476;2023-07-13T06:52:00;18.20;99.90
20045;DHT22;10183;47.808;9.476;2023-07-13T06:54:27;18.30;99.90
20045;DHT22;10183;47.808;9.476;2023-07-13T06:56:53;18.40;99.90
20045;DHT22;10183;47.808;9.476;2023-07-13T06:59:19;18.40;99.90
20045;DHT22;10183;47.808;9.476;2023-07-13T07:01:46;18.40;99.90
20045;DHT22;10183;47.808;9.476;2023-07-13T07:04:12;18.30;99.90
20045;DHT22;10183;47.808;9.476;2023-07-13T07:06:38;18.40;99.90
20045;DHT22;10183;47.808;9.476;2023-07-13T07:09:04;18.40;99.90
20045;DHT22;10183;47.808;9.476;2023-07-13T07:11:30;18.50;99.90
20045;DHT22;10183;47.808;9.476;2023-07-13T07:13:57;18.60;99.90
20045;DHT22;10183;47.808;9.476;2023-07-13T07:16:24;18.60;99.90
20045;DHT22;10183;47.808;9.476;2023-07-13T07:18:50;18.50;99.90
20045;DHT22;10183;47.808;9.476;2023-07-13T07:21:17;18.50;99.90
20045;DHT22;10183;47.808;9.476;2023-07-13T07:23:43;18.30;99.90
20045;DHT22;10183;47.808;9.476;2023-07-13T07:26:10;18.20;99.90
20045;DHT22;10183;47.808;9.476;2023-07-13T07:28:36;18.00;99.90
20045;DHT22;10183;47.808;9.476;2023-07-13T07:31:02;18.00;99.90
20045;DHT22;10183;47.808;9.476;2023-07-13T07:33:29;18.10;99.90
20045;DHT22;10183;47.808;9.476;2023-07-13T07:35:55;18.30;99.90
20045;DHT22;10183;47.808;9.476;2023-07-13T07:38:21;18.40;99.90
20045;DHT22;10183;47.808;9.476;2023-07-13T07:40:47;18.60;99.90
20045;DHT22;10183;47.808;9.476;2023-07-13T07:43:13;18.60;99.90
20045;DHT22;10183;47.808;9.476;2023-07-13T07:45:40;18.60;99.90
20045;DHT22;10183;47.808;9.476;2023-07-13T07:48:07;18.80;99.90
20045;DHT22;10183;47.808;9.476;2023-07-13T07:50:35;18.80;99.90
20045;DHT22;10183;47.808;9.476;2023-07-13T07:53:03;18.70;99.90
20045;DHT22;10183;47.808;9.476;2023-07-13T07:55:33;18.80;99.90
20045;DHT22;10183;47.808;9.476;2023-07-13T07:58:00;18.60;99.90
20045;DHT22;10183;47.808;9.476;2023-07-13T08:00:26;18.40;99.90
20045;DHT22;10183;47.808;9.476;2023-07-13T08:02:52;18.20;99.90
20045;DHT22;10183;47.808;9.476;2023-07-13T08:05:18;18.20;99.90
20045;DHT22;10183;47.808;9.476;2023-07-13T08:07:44;18.10;99.90
20045;DHT22;10183;47.808;9.476;2023-07-13T08:10:10;18.00;99.90
20045;DHT22;10183;47.808;9.476;2023-07-13T08:12:38;17.90;99.90
20045;DHT22;10183;47.808;9.476;2023-07-13T08:15:05;17.80;99.90
20045;DHT22;10183;47.808;9.476;2023-07-13T08:17:31;18.00;99.90
20045;DHT22;10183;47.808;9.476;2023-07-13T08:19:58;18.10;99.90
20045;DHT22;10183;47.808;9.476;2023-07-13T08:22:24;18.20;99.90
20045;DHT22;10183;47.808;9.476;2023-07-13T08:24:50;18.40;99.90
20045;DHT22;10183;47.808;9.476;2023-07-13T08:27:25;18.40;99.90
20045;DHT22;10183;47.808;9.476;2023-07-13T08:29:52;18.30;99.90
20045;DHT22;10183;47.808;9.476;2023-07-13T08:32:20;18.30;99.90
20045;DHT22;10183;47.808;9.476;2023-07-13T08:34:47;18.30;99.90
20045;DHT22;10183;47.808;9.476;2023-07-13T08:37:14;18.60;99.90
20045;DHT22;10183;47.808;9.476;2023-07-13T08:39:40;18.50;99.90
20045;DHT22;10183;47.808;9.476;2023-07-13T08:45:07;18.70;99.90
20045;DHT22;10183;47.808;9.476;2023-07-13T08:47:40;18.90;99.90
20045;DHT22;10183;47.808;9.476;2023-07-13T08:50:17;19.00;99.90
20045;DHT22;10183;47.808;9.476;2023-07-13T08:52:46;18.80;99.90
20045;DHT22;10183;47.808;9.476;2023-07-13T08:55:21;19.00;99.90
20045;DHT22;10183;47.808;9.476;2023-07-13T08:57:59;19.40;99.90
20045;DHT22;10183;47.808;9.476;2023-07-13T09:03:20;19.00;99.90
20045;DHT22;10183;47.808;9.476;2023-07-13T09:05:52;18.70;99.90
20045;DHT22;10183;47.808;9.476;2023-07-13T09:16:25;19.00;99.90
20045;DHT22;10183;47.808;9.476;2023-07-13T09:18:54;19.10;99.90
20045;DHT22;10183;47.808;9.476;2023-07-13T09:21:25;19.40;99.90
20045;DHT22;10183;47.808;9.476;2023-07-13T09:23:56;19.40;99.90
20045;DHT22;10183;47.808;9.476;2023-07-13T09:26:28;19.70;99.90
20045;DHT22;10183;47.808;9.476;2023-07-13T09:29:03;20.10;99.90
20045;DHT22;10183;47.808;9.476;2023-07-13T09:31:50;20.70;99.90
20045;DHT22;10183;47.808;9.476;2023-07-13T09:34:19;20.70;99.90
20045;DHT22;10183;47.808;9.476;2023-07-13T09:36:45;20.70;99.90
20045;DHT22;10183;47.808;9.476;2023-07-13T09:39:31;20.80;99.90
20045;DHT22;10183;47.808;9.476;2023-07-13T09:44:49;22.10;99.90
20045;DHT22;10183;47.808;9.476;2023-07-13T09:47:22;22.70;99.90
20045;DHT22;10183;47.808;9.476;2023-07-13T09:50:01;22.70;99.90
20045;DHT22;10183;47.808;9.476;2023-07-13T09:52:42;22.50;99.90
20045;DHT22;10183;47.808;9.476;2023-07-13T09:55:37;21.40;99.90
20045;DHT22;10183;47.808;9.476;2023-07-13T09:58:19;21.10;99.90
20045;DHT22;10183;47.808;9.476;2023-07-13T10:01:02;21.30;99.90
20045;DHT22;10183;47.808;9.476;2023-07-13T10:03:34;21.60;99.90
20045;DHT22;10183;47.808;9.476;2023-07-13T10:06:14;21.40;99.90
20045;DHT22;10183;47.808;9.476;2023-07-13T10:08:40;20.50;99.90
20045;DHT22;10183;47.808;9.476;2023-07-13T10:13:50;20.10;99.90
20045;DHT22;10183;47.808;9.476;2023-07-13T10:16:16;20.00;99.90
20045;DHT22;10183;47.808;9.476;2023-07-13T10:18:54;20.10;99.90
20045;DHT22;10183;47.808;9.476;2023-07-13T10:21:23;19.90;99.90
20045;DHT22;10183;47.808;9.476;2023-07-13T10:23:55;19.70;99.90
20045;DHT22;10183;47.808;9.476;2023-07-13T10:26:32;19.90;99.90
20045;DHT22;10183;47.808;9.476;2023-07-13T10:29:04;20.00;99.90
20045;DHT22;10183;47.808;9.476;2023-07-13T10:31:36;19.80;99.90
20045;DHT22;10183;47.808;9.476;2023-07-13T10:34:04;20.30;99.90
20045;DHT22;10183;47.808;9.476;2023-07-13T10:36:35;20.60;99.90
20045;DHT22;10183;47.808;9.476;2023-07-13T10:39:05;20.90;99.90
20045;DHT22;10183;47.808;9.476;2023-07-13T10:41:37;21.30;99.90
20045;DHT22;10183;47.808;9.476;2023-07-13T10:44:15;21.80;99.90
20045;DHT22;10183;47.808;9.476;2023-07-13T10:46:45;21.90;99.90
20045;DHT22;10183;47.808;9.476;2023-07-13T10:49:12;22.00;99.90
20045;DHT22;10183;47.808;9.476;2023-07-13T10:51:40;21.50;99.90
20045;DHT22;10183;47.808;9.476;2023-07-13T10:54:22;22.20;99.90
20045;DHT22;10183;47.808;9.476;2023-07-13T10:59:36;21.60;99.90
20045;DHT22;10183;47.808;9.476;2023-07-13T11:04:46;20.90;99.90
20045;DHT22;10183;47.808;9.476;2023-07-13T11:07:29;21.00;99.90
20045;DHT22;10183;47.808;9.476;2023-07-13T11:09:58;21.50;99.90
20045;DHT22;10183;47.808;9.476;2023-07-13T11:17:37;21.70;99.90
20045;DHT22;10183;47.808;9.476;2023-07-13T11:20:31;21.80;99.90
20045;DHT22;10183;47.808;9.476;2023-07-13T11:25:42;22.90;99.90
20045;DHT22;10183;47.808;9.476;2023-07-13T11:30:41;24.50;99.90
20045;DHT22;10183;47.808;9.476;2023-07-13T11:33:22;25.30;99.90
20045;DHT22;10183;47.808;9.476;2023-07-13T11:38:29;23.70;99.90
20045;DHT22;10183;47.808;9.476;2023-07-13T11:40:59;22.70;99.90
20045;DHT22;10183;47.808;9.476;2023-07-13T11:43:29;23.00;99.90
20045;DHT22;10183;47.808;9.476;2023-07-13T11:45:55;23.00;99.90
20045;DHT22;10183;47.808;9.476;2023-07-13T11:48:23;23.10;99.90
20045;DHT22;10183;47.808;9.476;2023-07-13T11:50:51;22.40;99.90
20045;DHT22;10183;47.808;9.476;2023-07-13T11:53:19;22.30;99.90
20045;DHT22;10183;47.808;9.476;2023-07-13T11:55:45;23.30;99.90
20045;DHT22;10183;47.808;9.476;2023-07-13T11:58:19;23.60;99.90
20045;DHT22;10183;47.808;9.476;2023-07-13T12:00:49;24.20;99.90
20045;DHT22;10183;47.808;9.476;2023-07-13T12:03:20;24.70;99.90
20045;DHT22;10183;47.808;9.476;2023-07-13T12:06:29;24.40;99.90
20045;DHT22;10183;47.808;9.476;2023-07-13T12:08:59;23.90;99.90
20045;DHT22;10183;47.808;9.476;2023-07-13T12:11:27;23.40;99.90
20045;DHT22;10183;47.808;9.476;2023-07-13T12:13:53;23.70;99.90
20045;DHT22;10183;47.808;9.476;2023-07-13T12:16:28;23.20;99.90
20045;DHT22;10183;47.808;9.476;2023-07-13T12:18:56;23.40;99.90
20045;DHT22;10183;47.808;9.476;2023-07-13T12:21:36;23.10;99.90
20045;DHT22;10183;47.808;9.476;2023-07-13T12:24:05;22.90;99.90
20045;DHT22;10183;47.808;9.476;2023-07-13T12:26:39;23.90;99.90
20045;DHT22;10183;47.808;9.476;2023-07-13T12:29:06;23.50;99.90
20045;DHT22;10183;47.808;9.476;2023-07-13T12:31:44;23.50;99.90
20045;DHT22;10183;47.808;9.476;2023-07-13T12:34:12;22.80;99.90
20045;DHT22;10183;47.808;9.476;2023-07-13T12:36:58;23.00;99.90
20045;DHT22;10183;47.808;9.476;2023-07-13T12:39:45;24.00;99.90
20045;DHT22;10183;47.808;9.476;2023-07-13T12:42:25;24.80;99.90
20045;DHT22;10183;47.808;9.476;2023-07-13T12:45:17;24.80;99.90
20045;DHT22;10183;47.808;9.476;2023-07-13T12:47:48;26.20;99.90
20045;DHT22;10183;47.808;9.476;2023-07-13T12:50:20;24.90;99.90
20045;DHT22;10183;47.808;9.476;2023-07-13T12:52:52;24.30;99.90
20045;DHT22;10183;47.808;9.476;2023-07-13T12:55:20;24.60;99.90
20045;DHT22;10183;47.808;9.476;2023-07-13T12:57:57;25.00;99.90
20045;DHT22;10183;47.808;9.476;2023-07-13T13:00:35;24.80;99.90
20045;DHT22;10183;47.808;9.476;2023-07-13T13:03:46;25.70;99.90
20045;DHT22;10183;47.808;9.476;2023-07-13T13:08:47;25.60;99.90
20045;DHT22;10183;47.808;9.476;2023-07-13T13:11:18;25.00;99.90
20045;DHT22;10183;47.808;9.476;2023-07-13T13:13:45;25.00;99.90
20045;DHT22;10183;47.808;9.476;2023-07-13T13:19:00;24.90;99.90
20045;DHT22;10183;47.808;9.476;2023-07-13T13:21:28;24.20;99.90
20045;DHT22;10183;47.808;9.476;2023-07-13T13:23:54;23.70;99.90
20045;DHT22;10183;47.808;9.476;2023-07-13T13:26:22;23.60;99.90
20045;DHT22;10183;47.808;9.476;2023-07-13T13:28:49;24.20;99.90
20045;DHT22;10183;47.808;9.476;2023-07-13T13:31:15;24.40;99.90
20045;DHT22;10183;47.808;9.476;2023-07-13T13:33:44;23.60;99.90
20045;DHT22;10183;47.808;9.476;2023-07-13T13:36:19;24.20;99.90
20045;DHT22;10183;47.808;9.476;2023-07-13T13:38:46;24.70;99.90
20045;DHT22;10183;47.808;9.476;2023-07-13T13:41:14;24.40;99.90
20045;DHT22;10183;47.808;9.476;2023-07-13T13:43:41;24.40;99.90
20045;DHT22;10183;47.808;9.476;2023-07-13T13:46:24;25.20;99.90
20045;DHT22;10183;47.808;9.476;2023-07-13T13:48:55;25.90;99.90
20045;DHT22;10183;47.808;9.476;2023-07-13T13:51:23;26.80;99.90
20045;DHT22;10183;47.808;9.476;2023-07-13T13:53:50;26.70;99.90
20045;DHT22;10183;47.808;9.476;2023-07-13T13:56:19;27.40;99.90
20045;DHT22;10183;47.808;9.476;2023-07-13T13:58:46;27.30;99.90
20045;DHT22;10183;47.808;9.476;2023-07-13T14:01:18;26.70;99.90
20045;DHT22;10183;47.808;9.476;2023-07-13T14:03:45;27.40;99.90
20045;DHT22;10183;47.808;9.476;2023-07-13T14:06:13;27.80;99.90
20045;DHT22;10183;47.808;9.476;2023-07-13T14:08:39;28.40;99.90
20045;DHT22;10183;47.808;9.476;2023-07-13T14:11:11;28.30;99.90
20045;DHT22;10183;47.808;9.476;2023-07-13T14:13:43;28.30;99.90
20045;DHT22;10183;47.808;9.476;2023-07-13T14:16:11;28.60;99.90
20045;DHT22;10183;47.808;9.476;2023-07-13T14:18:39;28.50;99.90
20045;DHT22;10183;47.808;9.476;2023-07-13T14:21:14;27.90;99.90
20045;DHT22;10183;47.808;9.476;2023-07-13T14:23:41;26.80;99.90
20045;DHT22;10183;47.808;9.476;2023-07-13T14:26:13;26.80;99.90
20045;DHT22;10183;47.808;9.476;2023-07-13T14:28:45;27.70;99.90
20045;DHT22;10183;47.808;9.476;2023-07-13T14:31:13;27.30;99.90
20045;DHT22;10183;47.808;9.476;2023-07-13T14:33:40;28.40;97.50
20045;DHT22;10183;47.808;9.476;2023-07-13T14:39:24;29.80;81.40
20045;DHT22;10183;47.808;9.476;2023-07-13T14:41:52;29.60;90.80
20045;DHT22;10183;47.808;9.476;2023-07-13T14:44:30;31.20;59.40
20045;DHT22;10183;47.808;9.476;2023-07-13T14:46:58;31.20;43.00
20045;DHT22;10183;47.808;9.476;2023-07-13T14:49:28;28.10;95.20
20045;DHT22;10183;47.808;9.476;2023-07-13T14:51:58;27.40;99.90
20045;DHT22;10183;47.808;9.476;2023-07-13T14:54:24;27.30;98.00
20045;DHT22;10183;47.808;9.476;2023-07-13T14:56:50;27.50;94.60
20045;DHT22;10183;47.808;9.476;2023-07-13T14:59:17;28.20;99.90
20045;DHT22;10183;47.808;9.476;2023-07-13T15:01:47;28.70;99.90
20045;DHT22;10183;47.808;9.476;2023-07-13T15:04:14;28.20;99.90
20045;DHT22;10183;47.808;9.476;2023-07-13T15:07:00;28.20;99.40
20045;DHT22;10183;47.808;9.476;2023-07-13T15:09:28;28.40;99.90
20045;DHT22;10183;47.808;9.476;2023-07-13T15:11:58;28.70;96.50
20045;DHT22;10183;47.808;9.476;2023-07-13T15:14:25;27.60;99.90
20045;DHT22;10183;47.808;9.476;2023-07-13T15:16:54;27.50;99.90
20045;DHT22;10183;47.808;9.476;2023-07-13T15:19:23;27.50;99.90
20045;DHT22;10183;47.808;9.476;2023-07-13T15:21:50;27.10;99.90
20045;DHT22;10183;47.808;9.476;2023-07-13T15:24:18;27.90;99.90
20045;DHT22;10183;47.808;9.476;2023-07-13T15:26:44;28.80;99.90
20045;DHT22;10183;47.808;9.476;2023-07-13T15:29:12;29.40;99.60
20045;DHT22;10183;47.808;9.476;2023-07-13T15:31:38;30.40;91.70
20045;DHT22;10183;47.808;9.476;2023-07-13T15:34:17;29.10;84.60
20045;DHT22;10183;47.808;9.476;2023-07-13T15:36:44;28.40;99.90
20045;DHT22;10183;47.808;9.476;2023-07-13T15:39:15;28.40;99.90
20045;DHT22;10183;47.808;9.476;2023-07-13T15:41:43;27.10;99.90
20045;DHT22;10183;47.808;9.476;2023-07-13T15:44:31;25.20;99.90
20045;DHT22;10183;47.808;9.476;2023-07-13T15:46:57;24.50;99.90
20045;DHT22;10183;47.808;9.476;2023-07-13T15:49:26;25.20;99.90
20045;DHT22;10183;47.808;9.476;2023-07-13T15:51:52;26.60;99.90
20045;DHT22;10183;47.808;9.476;2023-07-13T15:54:19;25.80;99.90
20045;DHT22;10183;47.808;9.476;2023-07-13T15:56:54;24.60;99.90
20045;DHT22;10183;47.808;9.476;2023-07-13T15:59:21;23.80;99.90
20045;DHT22;10183;47.808;9.476;2023-07-13T16:01:47;23.50;99.90
20045;DHT22;10183;47.808;9.476;2023-07-13T16:04:15;25.60;99.90
20045;DHT22;10183;47.808;9.476;2023-07-13T16:06:43;26.70;99.90
20045;DHT22;10183;47.808;9.476;2023-07-13T16:09:22;26.60;99.90
20045;DHT22;10183;47.808;9.476;2023-07-13T16:11:49;25.30;99.90
20045;DHT22;10183;47.808;9.476;2023-07-13T16:14:16;24.00;99.90
20045;DHT22;10183;47.808;9.476;2023-07-13T16:16:44;23.20;99.90
20045;DHT22;10183;47.808;9.476;2023-07-13T16:19:11;22.90;99.90
20045;DHT22;10183;47.808;9.476;2023-07-13T16:21:48;23.50;99.90
20045;DHT22;10183;47.808;9.476;2023-07-13T16:24:21;25.60;99.90
20045;DHT22;10183;47.808;9.476;2023-07-13T16:26:50;26.10;99.90
20045;DHT22;10183;47.808;9.476;2023-07-13T16:29:25;26.90;99.90
20045;DHT22;10183;47.808;9.476;2023-07-13T16:32:12;27.60;99.90
20045;DHT22;10183;47.808;9.476;2023-07-13T16:34:41;26.80;99.90